sensor_id;sensor_type;location;lat;lon;timestamp;temperature;humidity
19680;DHT22;9989;48.962;9.182;2023-03-01T00:01:41;2.10;93.20
19680;DHT22;9989;48.962;9.182;2023-03-01T00:04:07;2.00;93.00
19680;DHT22;9989;48.962;9.182;2023-03-01T00:06:32;2.00;93.20
19680;DHT22;9989;48.962;9.182;2023-03-01T00:08:58;2.00;93.20
19680;DHT22;9989;48.962;9.182;2023-03-01T00:11:29;2.00;93.20
19680;DHT22;9989;48.962;9.182;2023-03-01T00:13:57;1.90;93.50
19680;DHT22;9989;48.962;9.182;2023-03-01T00:16:28;1.90;93.80
19680;DHT22;9989;48.962;9.182;2023-03-01T00:18:55;1.80;94.20
19680;DHT22;9989;48.962;9.182;2023-03-01T00:21:21;1.80;94.30
19680;DHT22;9989;48.962;9.182;2023-03-01T00:23:47;1.70;94.40
19680;DHT22;9989;48.962;9.182;2023-03-01T00:26:15;1.70;94.50
19680;DHT22;9989;48.962;9.182;2023-03-01T00:28:41;1.70;94.70
19680;DHT22;9989;48.962;9.182;2023-03-01T00:31:17;1.60;94.80
19680;DHT22;9989;48.962;9.182;2023-03-01T00:33:44;1.70;94.90
19680;DHT22;9989;48.962;9.182;2023-03-01T00:36:11;1.70;95.10
19680;DHT22;9989;48.962;9.182;2023-03-01T00:38:38;1.70;95.40
19680;DHT22;9989;48.962;9.182;2023-03-01T00:41:12;1.70;95.80
19680;DHT22;9989;48.962;9.182;2023-03-01T00:43:38;1.80;96.00
19680;DHT22;9989;48.962;9.182;2023-03-01T00:46:07;1.80;95.60
19680;DHT22;9989;48.962;9.182;2023-03-01T00:48:33;1.80;95.60
19680;DHT22;9989;48.962;9.182;2023-03-01T00:53:38;1.70;96.20
19680;DHT22;9989;48.962;9.182;2023-03-01T00:56:06;1.70;96.20
19680;DHT22;9989;48.962;9.182;2023-03-01T00:58:32;1.70;96.40
19680;DHT22;9989;48.962;9.182;2023-03-01T01:00:58;1.70;96.40
19680;DHT22;9989;48.962;9.182;2023-03-01T01:03:24;1.80;96.40
19680;DHT22;9989;48.962;9.182;2023-03-01T01:05:51;1.80;96.40
19680;DHT22;9989;48.962;9.182;2023-03-01T01:08:17;1.90;96.30
19680;DHT22;9989;48.962;9.182;2023-03-01T01:10:44;2.00;96.30
19680;DHT22;9989;48.962;9.182;2023-03-01T01:13:10;2.00;96.20
19680;DHT22;9989;48.962;9.182;2023-03-01T01:15:36;2.10;96.10
19680;DHT22;9989;48.962;9.182;2023-03-01T01:18:02;2.10;96.00
19680;DHT22;9989;48.962;9.182;2023-03-01T01:20:28;2.20;95.90
19680;DHT22;9989;48.962;9.182;2023-03-01T01:22:53;2.20;95.80
19680;DHT22;9989;48.962;9.182;2023-03-01T01:25:19;2.30;95.80
19680;DHT22;9989;48.962;9.182;2023-03-01T01:27:45;2.30;95.80
19680;DHT22;9989;48.962;9.182;2023-03-01T01:30:11;2.30;95.70
19680;DHT22;9989;48.962;9.182;2023-03-01T01:32:37;2.30;95.70
19680;DHT22;9989;48.962;9.182;2023-03-01T01:35:03;2.30;95.70
19680;DHT22;9989;48.962;9.182;2023-03-01T01:37:28;2.30;95.60
19680;DHT22;9989;48.962;9.182;2023-03-01T01:39:59;2.30;95.70
19680;DHT22;9989;48.962;9.182;2023-03-01T01:42:26;2.30;95.70
19680;DHT22;9989;48.962;9.182;2023-03-01T01:45:31;2.30;95.60
19680;DHT22;9989;48.962;9.182;2023-03-01T01:48:04;2.30;95.70
19680;DHT22;9989;48.962;9.182;2023-03-01T01:50:32;2.30;95.80
19680;DHT22;9989;48.962;9.182;2023-03-01T01:53:15;2.30;95.70
19680;DHT22;9989;48.962;9.182;2023-03-01T01:55:45;2.30;95.80
19680;DHT22;9989;48.962;9.182;2023-03-01T01:58:17;2.30;96.20
19680;DHT22;9989;48.962;9.182;2023-03-01T02:00:43;2.30;96.00
19680;DHT22;9989;48.962;9.182;2023-03-01T02:03:15;2.30;96.00
19680;DHT22;9989;48.962;9.182;2023-03-01T02:08:44;2.30;96.00
19680;DHT22;9989;48.962;9.182;2023-03-01T02:11:12;2.30;96.00
19680;DHT22;9989;48.962;9.182;2023-03-01T02:13:40;2.30;96.00
19680;DHT22;9989;48.962;9.182;2023-03-01T02:16:11;2.30;96.00
19680;DHT22;9989;48.962;9.182;2023-03-01T02:18:39;2.30;96.20
19680;DHT22;9989;48.962;9.182;2023-03-01T02:23:56;2.40;96.20
19680;DHT22;9989;48.962;9.182;2023-03-01T02:26:56;2.40;96.20
19680;DHT22;9989;48.962;9.182;2023-03-01T02:29:23;2.40;96.30
19680;DHT22;9989;48.962;9.182;2023-03-01T02:31:51;2.50;96.30
19680;DHT22;9989;48.962;9.182;2023-03-01T02:34:22;2.50;96.20
19680;DHT22;9989;48.962;9.182;2023-03-01T02:37:04;2.50;96.20
19680;DHT22;9989;48.962;9.182;2023-03-01T02:39:39;2.60;96.20
19680;DHT22;9989;48.962;9.182;2023-03-01T02:42:11;2.60;96.20
19680;DHT22;9989;48.962;9.182;2023-03-01T02:44:38;2.60;96.20
19680;DHT22;9989;48.962;9.182;2023-03-01T02:47:04;2.60;96.30
19680;DHT22;9989;48.962;9.182;2023-03-01T02:49:34;2.70;96.40
19680;DHT22;9989;48.962;9.182;2023-03-01T02:55:06;2.70;96.60
19680;DHT22;9989;48.962;9.182;2023-03-01T02:57:35;2.70;96.70
19680;DHT22;9989;48.962;9.182;2023-03-01T03:00:05;2.70;96.80
19680;DHT22;9989;48.962;9.182;2023-03-01T03:02:35;2.80;96.80
19680;DHT22;9989;48.962;9.182;2023-03-01T03:05:08;2.70;96.90
19680;DHT22;9989;48.962;9.182;2023-03-01T03:07:36;2.80;97.00
19680;DHT22;9989;48.962;9.182;2023-03-01T03:10:04;2.80;97.00
19680;DHT22;9989;48.962;9.182;2023-03-01T03:12:30;2.80;96.90
19680;DHT22;9989;48.962;9.182;2023-03-01T03:14:56;2.80;96.90
19680;DHT22;9989;48.962;9.182;2023-03-01T03:17:22;2.80;97.00
19680;DHT22;9989;48.962;9.182;2023-03-01T03:19:47;2.80;97.10
19680;DHT22;9989;48.962;9.182;2023-03-01T03:22:13;2.80;97.10
19680;DHT22;9989;48.962;9.182;2023-03-01T03:24:39;2.80;97.30
19680;DHT22;9989;48.962;9.182;2023-03-01T03:27:05;2.80;97.30
19680;DHT22;9989;48.962;9.182;2023-03-01T03:29:31;2.70;97.60
19680;DHT22;9989;48.962;9.182;2023-03-01T03:31:57;2.70;98.10
19680;DHT22;9989;48.962;9.182;2023-03-01T03:34:22;2.70;98.10
19680;DHT22;9989;48.962;9.182;2023-03-01T03:36:55;2.70;98.20
19680;DHT22;9989;48.962;9.182;2023-03-01T03:39:26;2.70;98.40
19680;DHT22;9989;48.962;9.182;2023-03-01T03:41:53;2.70;98.70
19680;DHT22;9989;48.962;9.182;2023-03-01T03:44:18;2.70;98.70
19680;DHT22;9989;48.962;9.182;2023-03-01T03:46:44;2.70;98.60
19680;DHT22;9989;48.962;9.182;2023-03-01T03:49:10;2.70;98.50
19680;DHT22;9989;48.962;9.182;2023-03-01T03:51:35;2.70;98.40
19680;DHT22;9989;48.962;9.182;2023-03-01T03:54:01;2.70;98.40
19680;DHT22;9989;48.962;9.182;2023-03-01T03:56:26;2.60;98.50
19680;DHT22;9989;48.962;9.182;2023-03-01T03:58:52;2.60;98.60
19680;DHT22;9989;48.962;9.182;2023-03-01T04:01:18;2.60;98.70
19680;DHT22;9989;48.962;9.182;2023-03-01T04:03:44;2.50;99.00
19680;DHT22;9989;48.962;9.182;2023-03-01T04:06:12;2.50;99.30
19680;DHT22;9989;48.962;9.182;2023-03-01T04:08:38;2.40;99.60
19680;DHT22;9989;48.962;9.182;2023-03-01T04:11:05;2.40;99.90
19680;DHT22;9989;48.962;9.182;2023-03-01T04:13:54;2.40;99.90
19680;DHT22;9989;48.962;9.182;2023-03-01T04:16:20;2.40;99.90
19680;DHT22;9989;48.962;9.182;2023-03-01T04:18:46;2.40;99.90
19680;DHT22;9989;48.962;9.182;2023-03-01T04:21:12;2.30;99.90
19680;DHT22;9989;48.962;9.182;2023-03-01T04:23:38;2.40;99.90
19680;DHT22;9989;48.962;9.182;2023-03-01T04:26:04;2.30;99.90
19680;DHT22;9989;48.962;9.182;2023-03-01T04:28:34;2.40;99.90
19680;DHT22;9989;48.962;9.182;2023-03-01T04:31:04;2.40;99.90
19680;DHT22;9989;48.962;9.182;2023-03-01T04:33:43;2.30;99.90
19680;DHT22;9989;48.962;9.182;2023-03-01T04:36:10;2.30;99.90
19680;DHT22;9989;48.962;9.182;2023-03-01T04:38:39;2.30;99.90
19680;DHT22;9989;48.962;9.182;2023-03-01T04:41:07;2.30;99.90
19680;DHT22;9989;48.962;9.182;2023-03-01T04:43:33;2.30;99.90
19680;DHT22;9989;48.962;9.182;2023-03-01T04:46:04;2.30;99.90
19680;DHT22;9989;48.962;9.182;2023-03-01T04:48:31;2.40;99.90
19680;DHT22;9989;48.962;9.182;2023-03-01T04:50:58;2.40;99.90
19680;DHT22;9989;48.962;9.182;2023-03-01T04:53:24;2.30;99.90
19680;DHT22;9989;48.962;9.182;2023-03-01T04:55:50;2.30;99.90
19680;DHT22;9989;48.962;9.182;2023-03-01T04:58:16;2.20;99.90
19680;DHT22;9989;48.962;9.182;2023-03-01T05:00:42;2.20;99.90
19680;DHT22;9989;48.962;9.182;2023-03-01T05:03:08;2.20;99.90
19680;DHT22;9989;48.962;9.182;2023-03-01T05:05:36;2.20;99.90
19680;DHT22;9989;48.962;9.182;2023-03-01T05:08:04;2.30;99.90
19680;DHT22;9989;48.962;9.182;2023-03-01T05:10:32;2.30;99.90
19680;DHT22;9989;48.962;9.182;2023-03-01T05:12:59;2.20;99.90
19680;DHT22;9989;48.962;9.182;2023-03-01T05:15:26;2.20;99.90
19680;DHT22;9989;48.962;9.182;2023-03-01T05:17:52;2.30;99.90
19680;DHT22;9989;48.962;9.182;2023-03-01T05:20:19;2.30;99.90
19680;DHT22;9989;48.962;9.182;2023-03-01T05:22:48;2.30;99.90
19680;DHT22;9989;48.962;9.182;2023-03-01T05:25:14;2.20;99.90
19680;DHT22;9989;48.962;9.182;2023-03-01T05:27:39;2.20;99.90
19680;DHT22;9989;48.962;9.182;2023-03-01T05:30:06;2.10;99.90
19680;DHT22;9989;48.962;9.182;2023-03-01T05:32:42;2.00;99.90
19680;DHT22;9989;48.962;9.182;2023-03-01T05:35:10;1.90;99.90
19680;DHT22;9989;48.962;9.182;2023-03-01T05:37:41;1.90;99.90
19680;DHT22;9989;48.962;9.182;2023-03-01T05:40:12;1.80;99.90
19680;DHT22;9989;48.962;9.182;2023-03-01T05:42:45;1.80;99.90
19680;DHT22;9989;48.962;9.182;2023-03-01T05:45:11;1.80;99.90
19680;DHT22;9989;48.962;9.182;2023-03-01T05:47:41;1.70;99.90
19680;DHT22;9989;48.962;9.182;2023-03-01T05:53:03;1.60;99.90
19680;DHT22;9989;48.962;9.182;2023-03-01T05:55:31;1.70;99.90
19680;DHT22;9989;48.962;9.182;2023-03-01T05:58:05;1.70;99.90
19680;DHT22;9989;48.962;9.182;2023-03-01T06:00:31;1.70;99.90
19680;DHT22;9989;48.962;9.182;2023-03-01T06:02:58;1.70;99.90
19680;DHT22;9989;48.962;9.182;2023-03-01T06:05:25;1.70;99.90
19680;DHT22;9989;48.962;9.182;2023-03-01T06:07:51;1.70;99.90
19680;DHT22;9989;48.962;9.182;2023-03-01T06:10:19;1.80;99.90
19680;DHT22;9989;48.962;9.182;2023-03-01T06:12:46;1.80;99.90
19680;DHT22;9989;48.962;9.182;2023-03-01T06:15:13;1.90;99.90
19680;DHT22;9989;48.962;9.182;2023-03-01T06:17:41;2.00;99.90
19680;DHT22;9989;48.962;9.182;2023-03-01T06:20:12;2.00;99.90
19680;DHT22;9989;48.962;9.182;2023-03-01T06:22:39;2.00;99.90
19680;DHT22;9989;48.962;9.182;2023-03-01T06:25:05;2.10;99.90
19680;DHT22;9989;48.962;9.182;2023-03-01T06:27:31;2.10;99.90
19680;DHT22;9989;48.962;9.182;2023-03-01T06:29:56;2.20;99.90
19680;DHT22;9989;48.962;9.182;2023-03-01T06:32:22;2.20;99.90
19680;DHT22;9989;48.962;9.182;2023-03-01T06:34:47;2.30;99.90
19680;DHT22;9989;48.962;9.182;2023-03-01T06:37:13;2.40;99.90
19680;DHT22;9989;48.962;9.182;2023-03-01T06:39:38;2.40;99.90
19680;DHT22;9989;48.962;9.182;2023-03-01T06:42:04;2.50;99.90
19680;DHT22;9989;48.962;9.182;2023-03-01T06:44:30;2.50;99.90
19680;DHT22;9989;48.962;9.182;2023-03-01T06:46:55;2.60;99.90
19680;DHT22;9989;48.962;9.182;2023-03-01T06:49:21;2.60;99.90
19680;DHT22;9989;48.962;9.182;2023-03-01T06:51:46;2.70;99.90
19680;DHT22;9989;48.962;9.182;2023-03-01T06:54:12;2.80;99.90
19680;DHT22;9989;48.962;9.182;2023-03-01T06:56:38;2.80;99.90
19680;DHT22;9989;48.962;9.182;2023-03-01T06:59:04;2.80;99.90
19680;DHT22;9989;48.962;9.182;2023-03-01T07:01:30;2.90;99.90
19680;DHT22;9989;48.962;9.182;2023-03-01T07:03:56;3.00;99.70
19680;DHT22;9989;48.962;9.182;2023-03-01T07:06:22;3.00;99.60
19680;DHT22;9989;48.962;9.182;2023-03-01T07:08:48;3.10;99.50
19680;DHT22;9989;48.962;9.182;2023-03-01T07:11:14;3.20;99.40
19680;DHT22;9989;48.962;9.182;2023-03-01T07:13:40;3.20;99.20
19680;DHT22;9989;48.962;9.182;2023-03-01T07:16:06;3.30;99.20
19680;DHT22;9989;48.962;9.182;2023-03-01T07:18:32;3.40;99.10
19680;DHT22;9989;48.962;9.182;2023-03-01T07:20:58;3.40;98.90
19680;DHT22;9989;48.962;9.182;2023-03-01T07:23:23;3.50;98.80
19680;DHT22;9989;48.962;9.182;2023-03-01T07:25:55;3.60;98.80
19680;DHT22;9989;48.962;9.182;2023-03-01T07:28:23;3.60;98.70
19680;DHT22;9989;48.962;9.182;2023-03-01T07:30:49;3.80;98.60
19680;DHT22;9989;48.962;9.182;2023-03-01T07:33:15;3.90;98.50
19680;DHT22;9989;48.962;9.182;2023-03-01T07:35:40;4.00;98.30
19680;DHT22;9989;48.962;9.182;2023-03-01T07:38:06;4.20;98.00
19680;DHT22;9989;48.962;9.182;2023-03-01T07:40:32;4.30;97.60
19680;DHT22;9989;48.962;9.182;2023-03-01T07:42:58;4.50;97.20
19680;DHT22;9989;48.962;9.182;2023-03-01T07:45:25;4.50;96.80
19680;DHT22;9989;48.962;9.182;2023-03-01T07:47:51;4.70;96.90
19680;DHT22;9989;48.962;9.182;2023-03-01T07:50:20;4.90;96.60
19680;DHT22;9989;48.962;9.182;2023-03-01T07:52:49;5.00;96.20
19680;DHT22;9989;48.962;9.182;2023-03-01T07:55:16;5.20;95.70
19680;DHT22;9989;48.962;9.182;2023-03-01T07:57:42;5.30;95.00
19680;DHT22;9989;48.962;9.182;2023-03-01T08:00:10;5.40;94.80
19680;DHT22;9989;48.962;9.182;2023-03-01T08:02:36;5.60;94.90
19680;DHT22;9989;48.962;9.182;2023-03-01T08:05:07;5.80;94.50
19680;DHT22;9989;48.962;9.182;2023-03-01T08:07:34;6.10;94.10
19680;DHT22;9989;48.962;9.182;2023-03-01T08:09:59;6.70;92.90
19680;DHT22;9989;48.962;9.182;2023-03-01T08:12:25;7.40;91.80
19680;DHT22;9989;48.962;9.182;2023-03-01T08:14:52;8.30;90.00
19680;DHT22;9989;48.962;9.182;2023-03-01T08:17:18;9.10;85.40
19680;DHT22;9989;48.962;9.182;2023-03-01T08:19:44;9.80;83.70
19680;DHT22;9989;48.962;9.182;2023-03-01T08:22:10;10.20;80.40
19680;DHT22;9989;48.962;9.182;2023-03-01T08:24:36;10.50;78.40
19680;DHT22;9989;48.962;9.182;2023-03-01T08:27:01;10.70;75.80
19680;DHT22;9989;48.962;9.182;2023-03-01T08:29:30;11.00;74.20
19680;DHT22;9989;48.962;9.182;2023-03-01T08:31:56;11.30;73.10
19680;DHT22;9989;48.962;9.182;2023-03-01T08:34:22;12.00;70.90
19680;DHT22;9989;48.962;9.182;2023-03-01T08:36:47;13.00;67.90
19680;DHT22;9989;48.962;9.182;2023-03-01T08:39:15;14.10;65.40
19680;DHT22;9989;48.962;9.182;2023-03-01T08:41:42;15.30;61.60
19680;DHT22;9989;48.962;9.182;2023-03-01T08:44:09;16.40;57.10
19680;DHT22;9989;48.962;9.182;2023-03-01T08:46:38;17.30;54.40
19680;DHT22;9989;48.962;9.182;2023-03-01T08:49:08;18.30;52.40
19680;DHT22;9989;48.962;9.182;2023-03-01T08:51:36;19.10;49.30
19680;DHT22;9989;48.962;9.182;2023-03-01T08:54:06;19.70;46.60
19680;DHT22;9989;48.962;9.182;2023-03-01T08:56:33;20.30;45.60
19680;DHT22;9989;48.962;9.182;2023-03-01T08:58:59;20.70;43.70
19680;DHT22;9989;48.962;9.182;2023-03-01T09:01:24;21.20;42.90
19680;DHT22;9989;48.962;9.182;2023-03-01T09:03:50;21.80;41.60
19680;DHT22;9989;48.962;9.182;2023-03-01T09:06:16;22.10;40.20
19680;DHT22;9989;48.962;9.182;2023-03-01T09:08:44;22.40;40.00
19680;DHT22;9989;48.962;9.182;2023-03-01T09:11:11;22.90;39.50
19680;DHT22;9989;48.962;9.182;2023-03-01T09:13:37;23.40;38.60
19680;DHT22;9989;48.962;9.182;2023-03-01T09:16:06;23.80;37.70
19680;DHT22;9989;48.962;9.182;2023-03-01T09:18:32;23.90;36.60
19680;DHT22;9989;48.962;9.182;2023-03-01T09:21:17;24.00;36.10
19680;DHT22;9989;48.962;9.182;2023-03-01T09:23:45;24.00;36.70
19680;DHT22;9989;48.962;9.182;2023-03-01T09:26:16;24.20;35.10
19680;DHT22;9989;48.962;9.182;2023-03-01T09:28:45;24.20;35.10
19680;DHT22;9989;48.962;9.182;2023-03-01T09:31:11;24.50;35.10
19680;DHT22;9989;48.962;9.182;2023-03-01T09:33:41;24.80;34.50
19680;DHT22;9989;48.962;9.182;2023-03-01T09:36:11;25.10;34.20
19680;DHT22;9989;48.962;9.182;2023-03-01T09:38:37;25.10;33.60
19680;DHT22;9989;48.962;9.182;2023-03-01T09:41:10;25.10;33.60
19680;DHT22;9989;48.962;9.182;2023-03-01T09:43:46;25.10;33.50
19680;DHT22;9989;48.962;9.182;2023-03-01T09:46:14;25.30;33.10
19680;DHT22;9989;48.962;9.182;2023-03-01T09:48:50;25.70;33.50
19680;DHT22;9989;48.962;9.182;2023-03-01T09:51:32;25.90;32.60
19680;DHT22;9989;48.962;9.182;2023-03-01T09:53:58;26.10;32.20
19680;DHT22;9989;48.962;9.182;2023-03-01T09:57:06;26.30;32.40
19680;DHT22;9989;48.962;9.182;2023-03-01T09:59:44;26.50;31.30
19680;DHT22;9989;48.962;9.182;2023-03-01T10:02:43;26.20;31.70
19680;DHT22;9989;48.962;9.182;2023-03-01T10:08:02;26.70;31.40
19680;DHT22;9989;48.962;9.182;2023-03-01T10:10:37;26.50;31.40
19680;DHT22;9989;48.962;9.182;2023-03-01T10:13:32;26.10;31.40
19680;DHT22;9989;48.962;9.182;2023-03-01T10:16:01;26.20;32.30
19680;DHT22;9989;48.962;9.182;2023-03-01T10:18:30;26.20;32.00
19680;DHT22;9989;48.962;9.182;2023-03-01T10:21:00;26.50;31.80
19680;DHT22;9989;48.962;9.182;2023-03-01T10:23:28;26.70;30.90
19680;DHT22;9989;48.962;9.182;2023-03-01T10:29:01;26.40;30.70
19680;DHT22;9989;48.962;9.182;2023-03-01T10:31:52;26.50;30.90
19680;DHT22;9989;48.962;9.182;2023-03-01T10:36:47;26.90;31.10
19680;DHT22;9989;48.962;9.182;2023-03-01T10:39:18;27.10;30.60
19680;DHT22;9989;48.962;9.182;2023-03-01T10:41:59;27.40;30.90
19680;DHT22;9989;48.962;9.182;2023-03-01T10:44:43;27.60;30.00
19680;DHT22;9989;48.962;9.182;2023-03-01T10:47:21;27.60;30.10
19680;DHT22;9989;48.962;9.182;2023-03-01T10:49:52;27.80;29.90
19680;DHT22;9989;48.962;9.182;2023-03-01T10:52:21;28.10;29.90
19680;DHT22;9989;48.962;9.182;2023-03-01T10:57:39;28.50;29.50
19680;DHT22;9989;48.962;9.182;2023-03-01T11:00:25;28.20;29.20
19680;DHT22;9989;48.962;9.182;2023-03-01T11:03:12;27.80;29.40
19680;DHT22;9989;48.962;9.182;2023-03-01T11:05:56;27.70;29.90
19680;DHT22;9989;48.962;9.182;2023-03-01T11:11:23;27.40;29.30
19680;DHT22;9989;48.962;9.182;2023-03-01T11:16:35;27.90;29.30
19680;DHT22;9989;48.962;9.182;2023-03-01T11:21:44;28.70;29.10
19680;DHT22;9989;48.962;9.182;2023-03-01T11:24:14;29.20;29.00
19680;DHT22;9989;48.962;9.182;2023-03-01T11:26:44;30.00;28.60
19680;DHT22;9989;48.962;9.182;2023-03-01T11:29:38;30.80;28.50
19680;DHT22;9989;48.962;9.182;2023-03-01T11:32:09;31.60;27.40
19680;DHT22;9989;48.962;9.182;2023-03-01T11:34:47;32.00;26.90
19680;DHT22;9989;48.962;9.182;2023-03-01T11:40:26;31.60;26.40
19680;DHT22;9989;48.962;9.182;2023-03-01T11:45:46;31.60;27.00
19680;DHT22;9989;48.962;9.182;2023-03-01T11:51:16;32.40;26.50
19680;DHT22;9989;48.962;9.182;2023-03-01T12:07:36;33.80;25.40
19680;DHT22;9989;48.962;9.182;2023-03-01T12:10:17;34.10;25.40
19680;DHT22;9989;48.962;9.182;2023-03-01T12:27:05;35.30;24.50
19680;DHT22;9989;48.962;9.182;2023-03-01T12:29:34;35.40;24.50
19680;DHT22;9989;48.962;9.182;2023-03-01T12:41:04;35.30;23.90
19680;DHT22;9989;48.962;9.182;2023-03-01T12:43:41;34.90;24.20
19680;DHT22;9989;48.962;9.182;2023-03-01T12:49:17;34.10;24.90
19680;DHT22;9989;48.962;9.182;2023-03-01T12:51:56;34.10;25.10
19680;DHT22;9989;48.962;9.182;2023-03-01T12:54:30;34.10;25.10
19680;DHT22;9989;48.962;9.182;2023-03-01T12:57:18;34.10;25.10
19680;DHT22;9989;48.962;9.182;2023-03-01T13:02:31;34.00;25.00
19680;DHT22;9989;48.962;9.182;2023-03-01T13:10:40;33.20;25.00
19680;DHT22;9989;48.962;9.182;2023-03-01T13:13:13;32.60;25.30
19680;DHT22;9989;48.962;9.182;2023-03-01T13:15:39;31.80;25.90
19680;DHT22;9989;48.962;9.182;2023-03-01T13:26:16;31.30;26.40
19680;DHT22;9989;48.962;9.182;2023-03-01T13:36:11;29.90;27.40
19680;DHT22;9989;48.962;9.182;2023-03-01T13:39:02;29.80;27.40
19680;DHT22;9989;48.962;9.182;2023-03-01T13:46:47;28.90;28.50
19680;DHT22;9989;48.962;9.182;2023-03-01T13:49:16;28.90;28.50
19680;DHT22;9989;48.962;9.182;2023-03-01T13:51:47;28.70;28.70
19680;DHT22;9989;48.962;9.182;2023-03-01T13:54:15;28.70;28.60
19680;DHT22;9989;48.962;9.182;2023-03-01T13:56:41;28.80;28.70
19680;DHT22;9989;48.962;9.182;2023-03-01T13:59:18;28.60;28.50
19680;DHT22;9989;48.962;9.182;2023-03-01T14:01:44;28.50;29.20
19680;DHT22;9989;48.962;9.182;2023-03-01T14:04:23;28.50;28.70
19680;DHT22;9989;48.962;9.182;2023-03-01T14:06:51;28.50;28.60
19680;DHT22;9989;48.962;9.182;2023-03-01T14:09:28;28.50;28.80
19680;DHT22;9989;48.962;9.182;2023-03-01T14:19:57;27.80;28.60
19680;DHT22;9989;48.962;9.182;2023-03-01T14:22:27;27.50;29.40
19680;DHT22;9989;48.962;9.182;2023-03-01T14:25:03;27.50;29.60
19680;DHT22;9989;48.962;9.182;2023-03-01T14:27:35;27.70;29.30
19680;DHT22;9989;48.962;9.182;2023-03-01T14:30:09;27.40;29.40
19680;DHT22;9989;48.962;9.182;2023-03-01T14:32:35;27.30;29.40
19680;DHT22;9989;48.962;9.182;2023-03-01T14:35:01;27.20;29.60
19680;DHT22;9989;48.962;9.182;2023-03-01T14:37:29;27.20;29.60
19680;DHT22;9989;48.962;9.182;2023-03-01T14:39:57;27.00;29.50
19680;DHT22;9989;48.962;9.182;2023-03-01T14:42:25;26.70;29.80
19680;DHT22;9989;48.962;9.182;2023-03-01T14:44:54;26.50;30.10
19680;DHT22;9989;48.962;9.182;2023-03-01T14:47:32;26.20;30.20
19680;DHT22;9989;48.962;9.182;2023-03-01T14:50:01;26.00;30.10
19680;DHT22;9989;48.962;9.182;2023-03-01T14:52:40;25.90;30.50
19680;DHT22;9989;48.962;9.182;2023-03-01T14:55:19;25.40;31.10
19680;DHT22;9989;48.962;9.182;2023-03-01T14:57:48;25.00;31.20
19680;DHT22;9989;48.962;9.182;2023-03-01T15:00:24;24.60;31.40
19680;DHT22;9989;48.962;9.182;2023-03-01T15:02:52;24.40;32.00
19680;DHT22;9989;48.962;9.182;2023-03-01T15:05:24;24.40;31.70
19680;DHT22;9989;48.962;9.182;2023-03-01T15:07:51;24.20;32.10
19680;DHT22;9989;48.962;9.182;2023-03-01T15:10:21;24.00;32.10
19680;DHT22;9989;48.962;9.182;2023-03-01T15:12:47;23.90;32.70
19680;DHT22;9989;48.962;9.182;2023-03-01T15:15:43;23.80;32.40
19680;DHT22;9989;48.962;9.182;2023-03-01T15:18:18;23.90;32.80
19680;DHT22;9989;48.962;9.182;2023-03-01T15:20:45;23.70;32.60
19680;DHT22;9989;48.962;9.182;2023-03-01T15:23:20;23.50;32.60
19680;DHT22;9989;48.962;9.182;2023-03-01T15:25:47;23.30;33.00
19680;DHT22;9989;48.962;9.182;2023-03-01T15:28:22;23.50;32.90
19680;DHT22;9989;48.962;9.182;2023-03-01T15:30:54;23.40;32.80
19680;DHT22;9989;48.962;9.182;2023-03-01T15:33:33;23.30;33.00
19680;DHT22;9989;48.962;9.182;2023-03-01T15:38:56;23.50;33.00
19680;DHT22;9989;48.962;9.182;2023-03-01T15:41:38;23.60;32.70
19680;DHT22;9989;48.962;9.182;2023-03-01T15:44:27;23.50;32.60
19680;DHT22;9989;48.962;9.182;2023-03-01T15:46:53;23.10;32.90
19680;DHT22;9989;48.962;9.182;2023-03-01T15:49:41;22.70;33.30
19680;DHT22;9989;48.962;9.182;2023-03-01T15:52:17;22.30;34.00
19680;DHT22;9989;48.962;9.182;2023-03-01T15:54:45;22.00;34.40
19680;DHT22;9989;48.962;9.182;2023-03-01T15:57:14;21.80;34.80
19680;DHT22;9989;48.962;9.182;2023-03-01T15:59:40;21.70;35.10
19680;DHT22;9989;48.962;9.182;2023-03-01T16:02:11;21.40;35.20
19680;DHT22;9989;48.962;9.182;2023-03-01T16:04:38;21.20;35.70
19680;DHT22;9989;48.962;9.182;2023-03-01T16:07:04;21.00;36.10
19680;DHT22;9989;48.962;9.182;2023-03-01T16:09:30;20.80;36.40
19680;DHT22;9989;48.962;9.182;2023-03-01T16:11:55;20.30;36.80
19680;DHT22;9989;48.962;9.182;2023-03-01T16:14:21;19.70;37.50
19680;DHT22;9989;48.962;9.182;2023-03-01T16:16:47;19.20;38.60
19680;DHT22;9989;48.962;9.182;2023-03-01T16:19:14;18.70;39.50
19680;DHT22;9989;48.962;9.182;2023-03-01T16:21:40;18.00;40.30
19680;DHT22;9989;48.962;9.182;2023-03-01T16:24:07;17.30;41.40
19680;DHT22;9989;48.962;9.182;2023-03-01T16:26:33;16.60;42.50
19680;DHT22;9989;48.962;9.182;2023-03-01T16:28:59;15.90;43.70
19680;DHT22;9989;48.962;9.182;2023-03-01T16:31:25;15.30;45.40
19680;DHT22;9989;48.962;9.182;2023-03-01T16:33:55;14.80;46.70
19680;DHT22;9989;48.962;9.182;2023-03-01T16:36:23;14.20;48.00
19680;DHT22;9989;48.962;9.182;2023-03-01T16:38:50;13.60;48.90
19680;DHT22;9989;48.962;9.182;2023-03-01T16:41:17;13.20;49.90
19680;DHT22;9989;48.962;9.182;2023-03-01T16:43:43;12.80;50.90
19680;DHT22;9989;48.962;9.182;2023-03-01T16:46:13;12.50;51.70
19680;DHT22;9989;48.962;9.182;2023-03-01T16:48:39;12.20;52.40
19680;DHT22;9989;48.962;9.182;2023-03-01T16:51:05;11.90;53.30
19680;DHT22;9989;48.962;9.182;2023-03-01T16:53:33;11.70;53.70
19680;DHT22;9989;48.962;9.182;2023-03-01T16:56:02;11.50;54.40
19680;DHT22;9989;48.962;9.182;2023-03-01T16:58:28;11.30;55.10
19680;DHT22;9989;48.962;9.182;2023-03-01T17:00:55;11.10;55.90
19680;DHT22;9989;48.962;9.182;2023-03-01T17:03:23;10.90;56.10
19680;DHT22;9989;48.962;9.182;2023-03-01T17:05:49;10.70;56.70
19680;DHT22;9989;48.962;9.182;2023-03-01T17:08:15;10.60;57.20
19680;DHT22;9989;48.962;9.182;2023-03-01T17:10:41;10.40;57.40
19680;DHT22;9989;48.962;9.182;2023-03-01T17:13:10;10.30;57.80
19680;DHT22;9989;48.962;9.182;2023-03-01T17:15:40;10.20;58.20
19680;DHT22;9989;48.962;9.182;2023-03-01T17:18:07;10.10;58.60
19680;DHT22;9989;48.962;9.182;2023-03-01T17:20:33;10.00;58.80
19680;DHT22;9989;48.962;9.182;2023-03-01T17:22:59;10.00;58.90
19680;DHT22;9989;48.962;9.182;2023-03-01T17:25:24;9.90;59.30
19680;DHT22;9989;48.962;9.182;2023-03-01T17:27:50;9.80;59.50
19680;DHT22;9989;48.962;9.182;2023-03-01T17:30:16;9.70;59.50
19680;DHT22;9989;48.962;9.182;2023-03-01T17:32:41;9.70;59.80
19680;DHT22;9989;48.962;9.182;2023-03-01T17:35:07;9.60;59.90
19680;DHT22;9989;48.962;9.182;2023-03-01T17:37:35;9.50;60.20
19680;DHT22;9989;48.962;9.182;2023-03-01T17:40:02;9.50;60.60
19680;DHT22;9989;48.962;9.182;2023-03-01T17:42:28;9.40;60.70
19680;DHT22;9989;48.962;9.182;2023-03-01T17:44:53;9.30;60.90
19680;DHT22;9989;48.962;9.182;2023-03-01T17:47:19;9.30;61.30
19680;DHT22;9989;48.962;9.182;2023-03-01T17:49:44;9.30;61.40
19680;DHT22;9989;48.962;9.182;2023-03-01T17:52:10;9.30;61.60
19680;DHT22;9989;48.962;9.182;2023-03-01T17:54:35;9.20;61.70
19680;DHT22;9989;48.962;9.182;2023-03-01T17:57:01;9.20;61.80
19680;DHT22;9989;48.962;9.182;2023-03-01T17:59:27;9.20;62.00
19680;DHT22;9989;48.962;9.182;2023-03-01T18:01:56;9.10;62.10
19680;DHT22;9989;48.962;9.182;2023-03-01T18:04:23;9.10;62.40
19680;DHT22;9989;48.962;9.182;2023-03-01T18:06:48;9.00;62.60
19680;DHT22;9989;48.962;9.182;2023-03-01T18:09:14;9.00;62.80
19680;DHT22;9989;48.962;9.182;2023-03-01T18:11:40;8.90;62.90